Time;durP1;ratioP1;P1;durP2;ratioP2;P2;SDS_P1;SDS_P2;PMS_P1;PMS_P2;Temp;Humidity;BMP_temperature;BMP_pressure;BME280_temperature;BME280_humidity;BME280_pressure;Samples;Min_cycle;Max_cycle;Signal;HPM_P1;HPM_P2
2022/06/20 00:00:08;;;;;;;4.63;1.80;;;;;;;17.48;67.77;100491.19;5033700;28;20057;-52
2022/06/20 00:02:45;;;;;;;6.25;2.70;;;;;;;17.49;67.64;100488.50;5032864;28;20152;-51
2022/06/20 00:05:17;;;;;;;4.97;2.22;;;;;;;17.51;67.72;100483.19;5033252;28;20132;-51
2022/06/20 00:07:45;;;;;;;4.50;2.15;;;;;;;17.52;67.53;100501.47;5033257;28;20057;-51
2022/06/20 00:10:16;;;;;;;5.03;2.53;;;;;;;17.52;67.48;100498.84;5032839;28;20421;-52
2022/06/20 00:12:47;;;;;;;4.70;2.10;;;;;;;17.51;67.59;100510.25;5032855;28;20057;-55
2022/06/20 00:15:36;;;;;;;3.42;2.00;;;;;;;17.51;67.76;100510.25;5032633;28;20049;-53
2022/06/20 00:18:10;;;;;;;3.58;2.15;;;;;;;17.49;67.80;100512.09;5033219;28;20072;-55
2022/06/20 00:20:38;;;;;;;8.50;3.00;;;;;;;17.50;67.64;100512.94;5032845;28;20597;-53
2022/06/20 00:23:06;;;;;;;7.53;2.47;;;;;;;17.48;67.64;100517.38;5032810;28;20414;-53
2022/06/20 00:25:38;;;;;;;8.23;2.83;;;;;;;17.45;67.90;100510.50;5032983;28;20064;-52
2022/06/20 00:28:10;;;;;;;3.47;2.05;;;;;;;17.38;67.86;100498.56;5033109;28;20118;-52
2022/06/20 00:30:56;;;;;;;7.07;2.30;;;;;;;17.35;68.01;100496.91;5032888;28;20131;-53
2022/06/20 00:33:27;;;;;;;4.15;2.08;;;;;;;17.36;68.01;100495.16;5033027;28;20080;-52
2022/06/20 00:35:55;;;;;;;3.70;1.90;;;;;;;17.37;67.99;100502.09;5032412;28;20064;-51
2022/06/20 00:38:24;;;;;;;3.35;2.15;;;;;;;17.38;67.79;100514.28;5032194;28;20053;-51
2022/06/20 00:40:55;;;;;;;3.95;1.60;;;;;;;17.37;67.84;100507.34;5032457;28;20392;-54
2022/06/20 00:43:30;;;;;;;3.88;1.60;;;;;;;17.37;67.98;100506.50;5031074;28;20406;-53
2022/06/20 00:46:18;;;;;;;3.75;1.40;;;;;;;17.30;67.81;100513.75;5032631;28;20057;-54
2022/06/20 00:48:53;;;;;;;4.80;1.52;;;;;;;17.25;68.05;100518.31;5032442;28;20522;-54
2022/06/20 00:51:32;;;;;;;6.10;1.77;;;;;;;17.24;68.16;100511.34;5032670;28;20096;-52
2022/06/20 00:54:11;;;;;;;5.35;1.67;;;;;;;17.21;68.35;100506.25;5031812;28;20084;-52
2022/06/20 00:56:50;;;;;;;5.10;1.50;;;;;;;17.21;68.36;100507.09;5032531;28;20037;-53
2022/06/20 00:59:26;;;;;;;3.15;1.08;;;;;;;17.22;68.12;100523.66;5032243;28;20112;-52
2022/06/20 01:01:58;;;;;;;4.93;1.30;;;;;;;17.23;68.21;100530.59;5032244;28;20366;-54
2022/06/20 01:04:37;;;;;;;3.95;1.42;;;;;;;17.22;68.37;100526.28;5031763;28;20131;-51
2022/06/20 01:07:12;;;;;;;4.28;1.40;;;;;;;17.19;68.50;100535.13;5032265;28;20057;-55
2022/06/20 01:09:48;;;;;;;4.78;1.55;;;;;;;17.15;68.33;100528.25;5032530;28;20045;-53
2022/06/20 01:12:23;;;;;;;7.03;1.63;;;;;;;17.14;68.65;100520.47;5032209;28;20131;-50
2022/06/20 01:14:54;;;;;;;2.95;1.50;;;;;;;17.10;68.76;100524.97;5032379;28;20049;-51
2022/06/20 01:17:35;;;;;;;2.70;1.15;;;;;;;17.10;68.74;100521.50;5026701;28;20115;-52
2022/06/20 01:20:10;;;;;;;2.67;1.17;;;;;;;17.11;68.77;100523.19;5032285;28;20057;-52
2022/06/20 01:22:52;;;;;;;2.83;1.40;;;;;;;17.12;68.71;100538.00;5030898;28;20061;-54
2022/06/20 01:25:53;;;;;;;2.63;1.13;;;;;;;17.13;68.86;100529.22;5033791;28;20053;-53
2022/06/20 01:28:27;;;;;;;6.07;1.52;;;;;;;17.13;68.75;100522.22;5031672;28;20462;-52
2022/06/20 01:30:56;;;;;;;6.88;1.95;;;;;;;17.15;68.63;100522.16;5031983;28;20053;-51
2022/06/20 01:33:31;;;;;;;6.40;2.22;;;;;;;17.12;68.96;100512.66;5031952;28;20050;-52
2022/06/20 01:38:52;;;;;;;6.38;2.30;;;;;;;17.12;68.74;100501.34;5031911;28;20071;-52
2022/06/20 01:44:12;;;;;;;5.95;2.10;;;;;;;17.13;68.50;100487.31;5031331;28;20371;-53
2022/06/20 01:46:40;;;;;;;3.97;1.75;;;;;;;17.13;68.34;100492.56;5031547;28;20524;-51
2022/06/20 01:49:13;;;;;;;3.47;1.40;;;;;;;17.14;68.44;100486.41;5031551;28;20450;-52
2022/06/20 01:51:47;;;;;;;6.28;1.70;;;;;;;17.15;68.43;100475.88;5031631;28;20049;-52
2022/06/20 01:54:18;;;;;;;4.25;1.60;;;;;;;17.15;68.42;100481.13;5031477;28;20366;-52
2022/06/20 01:56:47;;;;;;;2.58;1.10;;;;;;;17.18;68.26;100480.16;5031488;28;20057;-52
2022/06/20 01:59:23;;;;;;;5.47;0.98;;;;;;;17.20;68.35;100473.09;5031721;28;20049;-51
2022/06/20 02:01:50;;;;;;;;;;;;;;;17.13;68.30;100466.38;5031727;28;20053;-51
2022/06/20 02:04:22;;;;;;;1.55;1.00;;;;;;;17.14;68.07;100478.56;5031146;28;19921;-52
2022/06/20 02:06:53;;;;;;;1.83;0.85;;;;;;;17.17;68.02;100473.19;5031320;28;20065;-55
2022/06/20 02:09:22;;;;;;;3.03;0.90;;;;;;;17.17;68.01;100481.06;5031488;28;20049;-53
2022/06/20 02:11:53;;;;;;;5.45;1.38;;;;;;;17.16;68.02;100481.97;5031955;28;20041;-54
2022/06/20 02:14:41;;;;;;;2.90;1.02;;;;;;;17.16;67.89;100484.59;5031841;28;20081;-53
2022/06/20 02:17:22;;;;;;;2.45;0.85;;;;;;;17.14;67.83;100486.41;5031818;28;20049;-52
2022/06/20 02:19:57;;;;;;;1.13;0.73;;;;;;;17.15;67.91;100490.75;5031697;28;20666;-53
2022/06/20 02:22:29;;;;;;;2.92;1.00;;;;;;;17.12;67.86;100496.94;5031853;28;20056;-54
2022/06/20 02:25:06;;;;;;;1.73;0.68;;;;;;;17.11;67.62;100516.19;5032111;28;20100;-52
2022/06/20 02:27:40;;;;;;;4.88;1.02;;;;;;;17.12;67.75;100522.28;5031672;28;20088;-55
2022/06/20 02:30:21;;;;;;;2.47;0.83;;;;;;;17.11;67.47;100515.34;5031611;28;20363;-54
2022/06/20 02:33:00;;;;;;;2.00;0.80;;;;;;;17.12;67.39;100522.28;5031676;28;20050;-52
2022/06/20 02:35:31;;;;;;;4.38;0.82;;;;;;;17.12;67.72;100522.28;5031343;28;20443;-54
2022/06/20 02:38:00;;;;;;;2.47;0.80;;;;;;;17.14;67.47;100525.69;5031307;28;20454;-53
2022/06/20 02:40:41;;;;;;;2.33;0.93;;;;;;;17.14;67.31;100509.97;5034696;28;20057;-53
2022/06/20 02:43:17;;;;;;;1.55;0.93;;;;;;;17.13;67.41;100500.41;5035696;28;20053;-52
2022/06/20 02:46:01;;;;;;;1.20;0.70;;;;;;;17.12;67.42;100517.06;5034725;28;20076;-52
2022/06/20 02:48:34;;;;;;;1.33;0.70;;;;;;;17.11;67.12;100520.59;5035055;28;20057;-53
2022/06/20 02:51:07;;;;;;;1.52;0.70;;;;;;;17.12;67.28;100532.75;5035228;28;20076;-51
2022/06/20 02:53:43;;;;;;;1.35;0.65;;;;;;;17.12;67.23;100532.75;5034773;28;20049;-52
2022/06/20 02:56:20;;;;;;;1.30;0.70;;;;;;;17.11;67.18;100528.44;5018312;28;20045;-52
2022/06/20 02:58:53;;;;;;;2.60;0.88;;;;;;;17.10;67.10;100529.34;5035333;28;20045;-53
2022/06/20 03:01:42;;;;;;;2.03;0.75;;;;;;;17.11;66.83;100531.91;5035063;28;20067;-52
2022/06/20 03:04:11;;;;;;;1.60;0.77;;;;;;;17.11;67.15;100536.28;5034110;28;20045;-51
2022/06/20 03:06:48;;;;;;;1.20;0.75;;;;;;;17.11;66.80;100546.78;5034825;28;20494;-52
2022/06/20 03:09:22;;;;;;;2.53;0.70;;;;;;;17.09;66.90;100548.59;5034470;28;20065;-52
2022/06/20 03:12:00;;;;;;;1.20;0.70;;;;;;;17.09;66.84;100544.22;5034646;28;20059;-54
2022/06/20 03:14:31;;;;;;;1.70;0.70;;;;;;;17.10;67.07;100547.69;5034357;28;20060;-51
2022/06/20 03:17:04;;;;;;;1.23;0.85;;;;;;;17.09;66.76;100548.59;5034354;28;20049;-54
2022/06/20 03:19:36;;;;;;;1.98;0.70;;;;;;;17.07;66.84;100545.19;5034634;28;20153;-52
2022/06/20 03:22:09;;;;;;;0.82;0.60;;;;;;;17.07;66.99;100551.28;5034248;28;20053;-53
2022/06/20 03:24:46;;;;;;;1.88;0.57;;;;;;;17.07;66.70;100551.28;5036410;28;20469;-51
2022/06/20 03:27:20;;;;;;;0.80;0.50;;;;;;;17.07;66.82;100546.03;5034548;28;20057;-53
2022/06/20 03:29:54;;;;;;;1.83;0.67;;;;;;;17.09;66.75;100538.13;5034279;28;20046;-52
2022/06/20 03:32:29;;;;;;;1.67;0.77;;;;;;;17.09;66.41;100528.50;5033659;28;20307;-52
2022/06/20 03:35:01;;;;;;;2.70;0.80;;;;;;;17.10;66.58;100518.88;5033956;28;20049;-51
2022/06/20 03:37:37;;;;;;;3.67;0.95;;;;;;;17.11;66.36;100520.59;5032905;28;20049;-51
2022/06/20 03:40:07;;;;;;;2.00;0.82;;;;;;;17.11;66.50;100508.34;5033929;28;20053;-51
2022/06/20 03:42:47;;;;;;;1.80;0.77;;;;;;;17.13;66.71;100529.22;5034315;28;20063;-53
2022/06/20 03:45:16;;;;;;;4.10;0.90;;;;;;;17.13;66.56;100526.63;5033702;28;20389;-51
2022/06/20 03:48:02;;;;;;;2.55;1.20;;;;;;;17.11;66.44;100531.06;5033895;28;20619;-52
2022/06/20 03:50:38;;;;;;;2.65;0.90;;;;;;;17.06;66.64;100538.25;5034143;28;20057;-53
2022/06/20 03:53:16;;;;;;;3.80;0.93;;;;;;;17.03;66.50;100542.69;5033881;28;20095;-52
2022/06/20 03:55:57;;;;;;;1.98;0.85;;;;;;;17.02;66.68;100564.53;5033606;28;20053;-51
2022/06/20 03:58:32;;;;;;;2.30;1.00;;;;;;;17.02;66.75;100580.25;5014062;28;20363;-51
2022/06/20 04:01:05;;;;;;;3.20;1.20;;;;;;;17.01;66.56;100552.38;5014147;28;20727;-52
2022/06/20 04:03:41;;;;;;;3.17;1.15;;;;;;;17.02;66.60;100564.53;5033816;28;20053;-53
2022/06/20 04:06:17;;;;;;;2.83;1.40;;;;;;;17.03;66.35;100570.63;5033366;28;20057;-52
2022/06/20 04:11:44;;;;;;;3.25;1.15;;;;;;;17.07;66.29;100560.91;5033501;28;20060;-51
2022/06/20 04:14:22;;;;;;;2.08;0.98;;;;;;;17.10;66.31;100545.06;5033575;28;20130;-51
2022/06/20 04:16:56;;;;;;;3.47;0.98;;;;;;;17.11;66.08;100531.91;5033523;28;20057;-53
2022/06/20 04:19:29;;;;;;;2.03;0.93;;;;;;;17.11;65.99;100534.53;5033502;28;20054;-52
2022/06/20 04:22:09;;;;;;;5.18;1.30;;;;;;;17.12;66.03;100548.47;5033352;28;20081;-52
2022/06/20 04:24:55;;;;;;;2.83;1.10;;;;;;;17.11;66.12;100573.81;5032973;28;20045;-51
2022/06/20 04:27:30;;;;;;;5.78;0.90;;;;;;;17.13;65.88;100592.09;5033630;28;20063;-52
2022/06/20 04:30:02;;;;;;;3.28;1.52;;;;;;;17.14;65.82;100586.78;5032805;28;20497;-51
2022/06/20 04:32:38;;;;;;;9.13;1.40;;;;;;;17.14;65.88;100583.31;5033041;28;20057;-51
2022/06/20 04:35:15;;;;;;;2.47;0.93;;;;;;;17.10;65.77;100593.06;5032893;28;20565;-51
2022/06/20 04:37:48;;;;;;;4.53;0.70;;;;;;;17.12;65.82;100598.25;5032892;28;20050;-52
2022/06/20 04:40:25;;;;;;;3.85;0.85;;;;;;;17.06;65.60;100586.22;5032665;28;20437;-52
2022/06/20 04:43:01;;;;;;;2.05;0.77;;;;;;;17.02;65.63;100590.72;5032888;28;20365;-51
2022/06/20 04:45:40;;;;;;;1.33;0.80;;;;;;;17.03;65.81;100579.34;5032400;28;20081;-51
2022/06/20 04:48:15;;;;;;;2.75;0.90;;;;;;;17.03;65.61;100565.41;5032676;28;20053;-54
2022/06/20 04:51:00;;;;;;;2.35;0.68;;;;;;;17.06;65.48;100559.19;5032518;28;20457;-51
2022/06/20 04:53:33;;;;;;;6.63;1.13;;;;;;;17.07;65.37;100553.03;5032742;28;20389;-55
2022/06/20 04:56:08;;;;;;;4.43;1.10;;;;;;;17.10;64.94;100560.78;5032509;28;20053;-53
2022/06/20 04:58:45;;;;;;;3.70;0.87;;;;;;;17.12;65.48;100559.81;5032976;28;20055;-53
2022/06/20 05:01:13;;;;;;;4.05;0.98;;;;;;;17.11;65.31;100554.63;5032551;28;20389;-55
2022/06/20 05:03:47;;;;;;;5.32;0.80;;;;;;;17.09;65.60;100564.31;5032302;28;20049;-53
2022/06/20 05:06:22;;;;;;;3.60;0.80;;;;;;;17.11;65.32;100552.00;5032381;28;20454;-52
2022/06/20 05:08:59;;;;;;;4.15;0.88;;;;;;;17.12;65.28;100554.56;5032478;28;20350;-51
2022/06/20 05:11:33;;;;;;;2.13;0.75;;;;;;;17.13;65.17;100553.66;5030394;28;20048;-55
2022/06/20 05:14:11;;;;;;;2.80;0.60;;;;;;;17.13;64.87;100545.78;5012608;28;20356;-54
2022/06/20 05:16:51;;;;;;;1.70;0.80;;;;;;;17.18;64.74;100527.31;5020937;28;20458;-55
2022/06/20 05:19:23;;;;;;;2.05;0.65;;;;;;;17.15;64.35;100537.88;5029230;28;20096;-55
2022/06/20 05:22:00;;;;;;;2.17;0.70;;;;;;;17.15;63.85;100549.22;5030429;28;20061;-55
2022/06/20 05:24:36;;;;;;;3.35;0.90;;;;;;;17.19;63.71;100555.22;5031852;28;20107;-52
2022/06/20 05:27:14;;;;;;;2.22;0.52;;;;;;;17.23;63.29;100541.09;5031849;28;20057;-53
2022/06/20 05:29:45;;;;;;;2.47;0.70;;;;;;;17.24;63.23;100527.06;5030014;28;20071;-52
2022/06/20 05:32:23;;;;;;;4.55;0.63;;;;;;;17.28;62.64;100507.72;5031611;28;20050;-51
2022/06/20 05:35:06;;;;;;;5.18;0.93;;;;;;;17.28;62.86;100502.47;5031580;28;20058;-54
2022/06/20 05:37:48;;;;;;;3.10;0.80;;;;;;;17.34;63.04;100503.06;5031702;28;20061;-51
2022/06/20 05:40:23;;;;;;;2.83;0.77;;;;;;;17.41;62.87;100498.44;5032100;28;20137;-50
2022/06/20 05:42:53;;;;;;;1.98;0.77;;;;;;;17.44;62.48;100487.84;5031028;28;20367;-51
2022/06/20 05:45:25;;;;;;;2.88;0.90;;;;;;;17.48;62.11;100488.56;5031699;28;20050;-51
2022/06/20 05:47:54;;;;;;;3.47;0.80;;;;;;;17.50;62.10;100494.59;5031931;28;20049;-53
2022/06/20 05:50:50;;;;;;;4.53;0.82;;;;;;;17.53;61.68;100478.75;5031694;28;20064;-53
2022/06/20 05:53:30;;;;;;;3.33;1.00;;;;;;;17.52;61.59;100475.25;5031831;28;20458;-51
2022/06/20 05:56:04;;;;;;;4.72;1.08;;;;;;;17.57;61.16;100482.94;5031423;28;20053;-50
2022/06/20 05:58:35;;;;;;;6.97;1.20;;;;;;;17.56;60.74;100476.00;5031394;28;20054;-50
2022/06/20 06:01:14;;;;;;;3.10;0.80;;;;;;;17.60;60.97;100491.53;5032220;28;20284;-50
2022/06/20 06:03:50;;;;;;;3.22;0.88;;;;;;;17.66;60.74;100493.03;5012243;28;20450;-50
2022/06/20 06:06:22;;;;;;;4.18;1.58;;;;;;;17.70;60.53;100505.16;5012636;28;20057;-50
2022/06/20 06:09:05;;;;;;;4.32;0.93;;;;;;;17.78;60.15;100502.22;5012023;28;20069;-51
2022/06/20 06:11:38;;;;;;;3.78;0.80;;;;;;;17.80;60.14;100475.03;5012023;28;20374;-51
2022/06/20 06:14:17;;;;;;;4.82;1.15;;;;;;;17.85;60.26;100482.69;5028078;28;20163;-51
2022/06/20 06:16:49;;;;;;;3.83;1.10;;;;;;;17.91;60.02;100483.28;5035882;28;20089;-51
2022/06/20 06:19:30;;;;;;;4.38;1.08;;;;;;;17.98;59.84;100484.72;5016246;28;20054;-53
2022/06/20 06:22:01;;;;;;;3.97;1.00;;;;;;;18.07;59.84;100472.97;5029940;28;20056;-52
2022/06/20 06:24:41;;;;;;;2.53;0.75;;;;;;;18.14;59.43;100487.53;5036022;28;20063;-51
2022/06/20 06:27:12;;;;;;;4.28;1.27;;;;;;;18.18;59.37;100485.63;5036158;28;20111;-53
2022/06/20 06:29:47;;;;;;;5.25;1.10;;;;;;;18.22;59.18;100500.34;5033306;28;20042;-52
2022/06/20 06:32:19;;;;;;;3.08;1.13;;;;;;;18.25;59.04;100493.19;5035864;28;20497;-53
2022/06/20 06:34:57;;;;;;;3.10;1.00;;;;;;;18.28;59.06;100500.94;5035553;28;20049;-52
2022/06/20 06:37:31;;;;;;;4.85;0.93;;;;;;;18.32;58.83;100498.16;5035805;28;20164;-54
2022/06/20 06:40:07;;;;;;;3.10;1.02;;;;;;;18.35;58.57;100498.03;5035776;28;20100;-52
2022/06/20 06:42:37;;;;;;;2.50;1.10;;;;;;;18.38;58.56;100504.00;5035746;28;20049;-51
2022/06/20 06:45:12;;;;;;;4.60;0.90;;;;;;;18.41;58.45;100503.00;5034174;28;20065;-51
2022/06/20 06:47:46;;;;;;;3.50;1.05;;;;;;;18.43;58.33;100495.91;5035385;28;20049;-52
2022/06/20 06:50:26;;;;;;;5.57;1.35;;;;;;;18.44;58.15;100482.72;5035485;28;20494;-54
2022/06/20 06:53:02;;;;;;;4.22;1.10;;;;;;;18.46;58.14;100485.28;5035367;28;20454;-52
2022/06/20 06:55:39;;;;;;;5.63;1.42;;;;;;;18.48;57.96;100483.44;5032080;28;20081;-53
2022/06/20 06:58:19;;;;;;;4.25;1.10;;;;;;;18.49;57.93;100479.91;5035227;28;20684;-51
2022/06/20 07:00:58;;;;;;;4.43;1.17;;;;;;;18.43;57.82;100488.03;5035749;28;20049;-51
2022/06/20 07:03:38;;;;;;;5.18;0.90;;;;;;;18.40;57.71;100485.56;5034675;28;20143;-51
2022/06/20 07:06:16;;;;;;;4.10;1.02;;;;;;;18.40;57.98;100490.81;5035120;28;20522;-50
2022/06/20 07:08:52;;;;;;;3.63;1.35;;;;;;;18.45;58.19;100504.56;5035453;28;20056;-51
2022/06/20 07:11:34;;;;;;;4.93;1.52;;;;;;;18.50;58.49;100513.09;5035118;28;20057;-51
2022/06/20 07:14:11;;;;;;;9.05;2.03;;;;;;;18.52;58.59;100503.38;5035263;28;20061;-51
2022/06/20 07:16:54;;;;;;;12.18;4.50;;;;;;;18.53;58.56;100497.22;5034963;28;20049;-51
2022/06/20 07:22:06;;;;;;;17.58;7.20;;;;;;;18.50;58.33;100481.59;5023702;28;20057;-52
2022/06/20 07:24:38;;;;;;;6.60;1.80;;;;;;;18.52;58.10;100477.13;5034345;28;20065;-52
2022/06/20 07:27:18;;;;;;;5.35;1.67;;;;;;;18.54;58.21;100483.16;5034487;28;20053;-51
2022/06/20 07:30:08;;;;;;;3.13;1.30;;;;;;;18.64;58.36;100488.88;5034639;28;20050;-51
2022/06/20 07:32:42;;;;;;;4.25;1.02;;;;;;;18.74;57.91;100469.19;5034546;28;20573;-51
2022/06/20 07:35:19;;;;;;;4.97;1.10;;;;;;;18.84;57.48;100476.56;5034485;28;20544;-51
2022/06/20 07:37:57;;;;;;;3.35;1.17;;;;;;;18.96;57.25;100479.53;5034992;28;20126;-51
2022/06/20 07:40:30;;;;;;;3.22;1.10;;;;;;;19.03;56.50;100491.44;5033275;28;20049;-53
2022/06/20 07:43:07;;;;;;;3.90;1.15;;;;;;;19.07;56.12;100490.38;5032173;28;20419;-50
2022/06/20 07:45:50;;;;;;;4.68;1.30;;;;;;;19.12;56.19;100494.50;5033876;28;20053;-50
2022/06/20 07:48:25;;;;;;;16.30;2.75;;;;;;;19.16;56.36;100497.81;5034502;28;20436;-51
2022/06/20 07:51:01;;;;;;;10.20;1.60;;;;;;;19.20;56.15;100494.13;5034421;28;20064;-50
2022/06/20 07:53:40;;;;;;;9.40;3.72;;;;;;;19.25;55.90;100507.94;5034826;28;20089;-50
2022/06/20 07:56:16;;;;;;;4.97;1.52;;;;;;;19.26;55.29;100504.38;5034095;28;20140;-53
2022/06/20 07:58:54;;;;;;;12.55;4.03;;;;;;;19.25;55.12;100513.19;5033971;28;20115;-53
2022/06/20 08:01:28;;;;;;;6.50;2.15;;;;;;;19.25;55.44;100526.31;5033630;28;20053;-54
2022/06/20 08:04:09;;;;;;;3.40;1.50;;;;;;;19.29;54.97;100535.75;5033494;28;20095;-54
2022/06/20 08:06:43;;;;;;;5.28;1.60;;;;;;;19.31;54.98;100549.69;5033212;28;20064;-54
2022/06/20 08:09:22;;;;;;;5.93;1.55;;;;;;;19.33;54.82;100560.97;5032487;28;20064;-53
2022/06/20 08:12:05;;;;;;;9.52;4.07;;;;;;;19.35;54.44;100545.97;5033981;28;20045;-51
2022/06/20 08:14:43;;;;;;;14.30;3.55;;;;;;;19.32;54.47;100546.13;5033357;28;20134;-51
2022/06/20 08:17:13;;;;;;;15.88;3.92;;;;;;;19.30;54.69;100537.47;5034171;28;20045;-50
2022/06/20 08:19:43;;;;;;;7.32;2.42;;;;;;;19.32;54.79;100543.50;5032665;28;20059;-51
2022/06/20 08:22:21;;;;;;;9.88;3.30;;;;;;;19.34;54.93;100544.28;5019767;28;20054;-50
2022/06/20 08:24:57;;;;;;;8.48;1.85;;;;;;;19.31;54.60;100536.53;5028559;28;20049;-51
2022/06/20 08:27:38;;;;;;;7.00;1.15;;;;;;;19.26;54.81;100551.66;5033392;28;20466;-54
2022/06/20 08:30:33;;;;;;;4.40;1.48;;;;;;;19.24;54.42;100556.13;5033773;28;20115;-54
2022/06/20 08:33:05;;;;;;;;;;;;;;;19.16;54.38;100545.97;5033660;28;20046;-51
2022/06/20 08:35:43;;;;;;;8.25;1.63;;;;;;;19.16;55.07;100558.25;5033546;28;19925;-50
2022/06/20 08:38:21;;;;;;;6.95;2.03;;;;;;;19.14;55.27;100563.59;5032945;28;20057;-51
2022/06/20 08:41:24;;;;;;;5.78;1.58;;;;;;;19.10;54.72;100558.53;5033768;28;20049;-50
2022/06/20 08:44:42;;;;;;;4.10;1.27;;;;;;;18.96;55.00;100568.84;5031844;28;20053;-50
2022/06/20 08:47:45;;;;;;;2.88;1.10;;;;;;;18.91;55.21;100583.03;4972811;28;20047;-50
2022/06/20 08:50:52;;;;;;;5.20;1.38;;;;;;;18.95;55.27;100610.00;4992064;28;20054;-50
2022/06/20 08:54:20;;;;;;;6.82;2.03;;;;;;;19.00;55.55;100620.31;4991859;28;20062;-51
2022/06/20 08:56:56;;;;;;;;;;;;;;;18.97;56.29;100629.19;4968619;28;20047;-50
2022/06/20 08:59:39;;;;;;;7.82;1.70;;;;;;;19.03;56.27;100649.06;5033047;28;19929;-50
2022/06/20 09:02:46;;;;;;;8.25;2.28;;;;;;;19.07;56.28;100655.88;5033195;28;20076;-53
2022/06/20 09:05:47;;;;;;;7.97;2.03;;;;;;;19.08;56.36;100668.09;5033022;28;20057;-53
2022/06/20 09:08:47;;;;;;;5.75;1.80;;;;;;;19.06;56.14;100683.06;5030036;28;20045;-50
2022/06/20 09:11:57;;;;;;;7.57;1.55;;;;;;;19.05;56.51;100699.75;5032817;28;20072;-50
2022/06/20 09:14:40;;;;;;;6.65;1.58;;;;;;;19.01;56.82;100683.28;5033307;28;20089;-52
2022/06/20 09:17:21;;;;;;;8.02;1.55;;;;;;;19.00;57.09;100670.22;5033198;28;20049;-54
2022/06/20 09:20:15;;;;;;;5.00;1.63;;;;;;;19.00;57.38;100657.09;5032949;28;20049;-50
2022/06/20 09:23:04;;;;;;;5.57;1.42;;;;;;;18.99;58.08;100642.25;5032636;28;20558;-50
2022/06/20 09:25:42;;;;;;;2.85;1.00;;;;;;;18.97;58.03;100629.19;5032762;28;20441;-52
2022/06/20 09:28:29;;;;;;;4.18;1.23;;;;;;;18.97;57.83;100617.81;5029945;28;20053;-52
2022/06/20 09:31:08;;;;;;;3.97;1.15;;;;;;;18.95;57.87;100594.25;5025962;28;20429;-54
2022/06/20 09:34:05;;;;;;;11.60;1.40;;;;;;;18.94;57.56;100575.94;5031194;28;20052;-52
2022/06/20 09:37:11;;;;;;;9.48;1.27;;;;;;;18.91;58.11;100562.03;5032634;28;20128;-51
2022/06/20 09:40:03;;;;;;;5.25;1.02;;;;;;;18.88;58.67;100546.41;5027304;28;20045;-54
2022/06/20 09:42:44;;;;;;;8.93;1.77;;;;;;;18.85;59.21;100546.53;5012948;28;20064;-52
2022/06/20 09:45:25;;;;;;;6.65;1.73;;;;;;;18.81;59.58;100539.72;5019667;28;20057;-51
2022/06/20 09:48:07;;;;;;;8.45;2.30;;;;;;;18.72;60.10;100531.38;5032748;28;20053;-51
2022/06/20 09:51:07;;;;;;;9.20;1.98;;;;;;;18.52;60.81;100506.00;5036662;28;20053;-51
2022/06/20 09:54:08;;;;;;;9.70;2.30;;;;;;;18.25;62.21;100487.94;5036489;28;20057;-51
2022/06/20 09:56:44;;;;;;;10.55;2.65;;;;;;;18.02;62.94;100406.75;5035111;28;20439;-54
2022/06/20 09:59:22;;;;;;;8.50;2.03;;;;;;;17.74;65.02;100333.72;5036627;28;20379;-51
2022/06/20 10:01:59;;;;;;;7.63;2.55;;;;;;;17.27;76.33;100346.22;5036543;28;20046;-54
2022/06/20 10:04:41;;;;;;;6.68;2.67;;;;;;;17.03;74.66;100366.38;5033843;28;20351;-53
2022/06/20 10:07:33;;;;;;;9.27;3.00;;;;;;;16.77;76.48;100375.28;5035226;28;20052;-52
2022/06/20 10:10:23;;;;;;;7.90;2.60;;;;;;;16.70;76.83;100400.00;5025464;28;20053;-50
2022/06/20 10:13:00;;;;;;;10.77;3.45;;;;;;;16.75;74.14;100405.06;5036761;28;20053;-51
2022/06/20 10:15:39;;;;;;;7.63;2.97;;;;;;;16.78;72.28;100391.84;5035579;28;20068;-54
2022/06/20 10:18:44;;;;;;;6.65;2.67;;;;;;;16.80;71.84;100390.88;5026937;28;20053;-51
2022/06/20 10:21:16;;;;;;;8.13;2.58;;;;;;;16.80;71.44;100400.50;5036320;28;20363;-54
2022/06/20 10:24:14;;;;;;;9.52;2.65;;;;;;;16.82;70.95;100415.22;5036629;28;20057;-54
2022/06/20 10:27:35;;;;;;;8.77;2.33;;;;;;;16.81;73.54;100455.41;5035582;28;20041;-51
2022/06/20 10:30:15;;;;;;;7.35;2.53;;;;;;;16.79;72.94;100467.69;5031155;28;20049;-51
2022/06/20 10:33:12;;;;;;;6.20;2.65;;;;;;;16.82;73.26;100461.50;5032947;28;20061;-51
2022/06/20 10:35:51;;;;;;;6.45;2.42;;;;;;;16.85;72.85;100475.31;5029374;28;20049;-51
2022/06/20 10:38:30;;;;;;;9.63;2.25;;;;;;;16.92;72.70;100478.53;5035631;28;20049;-51
2022/06/20 10:41:07;;;;;;;7.47;2.25;;;;;;;17.01;72.17;100479.03;5034535;28;20064;-51
2022/06/20 10:44:05;;;;;;;7.07;2.13;;;;;;;17.04;70.91;100478.91;5036044;28;20057;-51
2022/06/20 10:46:41;;;;;;;6.10;2.13;;;;;;;17.07;70.67;100482.34;5035525;28;20121;-50
2022/06/20 10:49:39;;;;;;;7.82;2.10;;;;;;;17.12;70.26;100501.34;5035188;28;20057;-52
2022/06/20 10:52:22;;;;;;;4.75;1.70;;;;;;;17.18;69.84;100511.59;5029705;28;20072;-51
2022/06/20 10:55:14;;;;;;;7.47;2.15;;;;;;;17.22;69.71;100514.03;5035574;28;20124;-53
2022/06/20 10:57:57;;;;;;;7.78;1.98;;;;;;;17.29;69.53;100498.94;5035420;28;20060;-53
2022/06/20 11:00:39;;;;;;;3.80;1.80;;;;;;;17.34;69.19;100491.75;5034818;28;20057;-53
2022/06/20 11:04:02;;;;;;;4.10;1.75;;;;;;;17.38;68.43;100488.09;5034800;28;20052;-52
2022/06/20 11:06:42;;;;;;;6.43;1.83;;;;;;;17.39;68.13;100489.78;5007275;28;20520;-54
2022/06/20 11:09:27;;;;;;;8.77;2.45;;;;;;;17.43;67.86;100475.66;5034311;28;20053;-54
2022/06/20 11:12:06;;;;;;;4.88;1.70;;;;;;;17.48;67.57;100476.31;5034594;28;20119;-53
2022/06/20 11:14:44;;;;;;;7.68;2.17;;;;;;;17.51;67.23;100467.47;5028197;28;20049;-54
2022/06/20 11:17:35;;;;;;;3.97;1.60;;;;;;;17.54;67.06;100473.44;5032316;28;20041;-54
2022/06/20 11:20:14;;;;;;;4.78;1.73;;;;;;;17.57;66.75;100470.69;5034017;28;20679;-51
2022/06/20 11:22:48;;;;;;;7.43;1.95;;;;;;;17.58;66.06;100468.91;5033784;28;20057;-51
2022/06/20 11:25:36;;;;;;;5.43;1.80;;;;;;;17.63;65.94;100473.06;5034776;28;20057;-51
2022/06/20 11:28:23;;;;;;;7.20;2.10;;;;;;;17.70;65.80;100478.09;5034488;28;20473;-51
2022/06/20 11:31:02;;;;;;;3.03;1.15;;;;;;;17.76;65.38;100467.34;5035184;28;20107;-52
2022/06/20 11:34:09;;;;;;;9.32;1.60;;;;;;;17.81;64.99;100445.28;5034759;28;20057;-51
2022/06/20 11:37:01;;;;;;;6.20;1.77;;;;;;;17.84;65.10;100444.28;5034674;28;20347;-51
2022/06/20 11:39:46;;;;;;;5.32;1.67;;;;;;;17.89;64.90;100443.16;5034712;28;20057;-50
2022/06/20 11:42:35;;;;;;;6.47;1.93;;;;;;;17.93;64.50;100433.41;5034634;28;20480;-51
2022/06/20 11:45:24;;;;;;;3.45;1.70;;;;;;;17.90;63.90;100438.78;5034365;28;20292;-51
2022/06/20 11:48:32;;;;;;;4.93;1.20;;;;;;;17.88;63.38;100430.13;5032970;28;20642;-51
2022/06/20 11:51:22;;;;;;;3.17;1.30;;;;;;;17.90;63.20;100423.03;5030737;28;20045;-50
2022/06/20 11:54:06;;;;;;;6.38;1.52;;;;;;;17.94;63.49;100404.47;5032834;28;20046;-53
2022/06/20 11:56:45;;;;;;;6.18;1.27;;;;;;;18.00;63.58;100398.13;5022518;28;20041;-51
2022/06/20 11:59:45;;;;;;;5.30;1.33;;;;;;;18.07;63.27;100382.97;5033566;28;20474;-51
2022/06/20 12:02:35;;;;;;;5.15;1.40;;;;;;;18.11;63.02;100384.53;5032573;28;20069;-51
2022/06/20 12:05:39;;;;;;;7.57;1.70;;;;;;;18.12;63.02;100363.47;5034137;28;20060;-53
2022/06/20 12:09:04;;;;;;;6.45;1.48;;;;;;;18.17;62.54;100358.84;5026178;28;20045;-53
2022/06/20 12:12:00;;;;;;;5.30;1.17;;;;;;;18.13;62.70;100353.81;5002317;28;20061;-50
2022/06/20 12:14:41;;;;;;;4.67;1.40;;;;;;;18.13;62.47;100356.44;5028269;28;20055;-51
2022/06/20 12:17:30;;;;;;;6.03;1.55;;;;;;;18.17;62.57;100364.09;5034518;28;20041;-51
2022/06/20 12:23:27;;;;;;;5.88;1.23;;;;;;;18.34;62.18;100357.25;5033563;28;20064;-51
2022/06/20 12:26:17;;;;;;;6.45;1.83;;;;;;;18.44;61.82;100371.66;5033646;28;20058;-51
2022/06/20 12:28:48;;;;;;;6.35;1.65;;;;;;;18.46;61.60;100369.81;5021844;28;20136;-53
2022/06/20 12:31:21;;;;;;;8.93;2.03;;;;;;;18.53;61.55;100373.84;5034196;28;20057;-52
2022/06/20 12:33:55;;;;;;;5.35;1.67;;;;;;;18.60;61.36;100378.72;5033842;28;20064;-50
2022/06/20 12:36:35;;;;;;;3.42;1.50;;;;;;;18.62;60.59;100386.56;5033756;28;20045;-52
2022/06/20 12:39:09;;;;;;;4.22;1.52;;;;;;;18.59;60.85;100392.78;5034189;28;20057;-54